Terminal Aerodrome Forecast
Issued by NWS

Home | Current Version | Previous Version | Text Only | Print | Product List | Glossary On
Versions: 1 2 3 4 5 6 7 8 9 10 11 12 13 14 15 16
000
FTUS45 KGGW 220500
TAFSDY
TAF
KSDY 220520Z 2206/2306 29014KT P6SM SCT009 OVC035
      TEMPO 2208/2212 5SM -SN BKN009
     FM221200 31019G27KT 5SM -SN BKN013 OVC024
     FM230000 32015KT P6SM OVC021
      AMD LTD TO CLD VIS AND WIND=

USA.gov is the U.S. government's official web portal to all federal, state and local government web resources and services.